sensor_id;sensor_type;location;lat;lon;timestamp;temperature;humidity
28438;DHT22;15667;52.376;9.708;2023-02-21T00:02:29;8.90;99.90
28438;DHT22;15667;52.376;9.708;2023-02-21T00:05:13;8.90;99.90
28438;DHT22;15667;52.376;9.708;2023-02-21T00:07:57;8.90;99.90
28438;DHT22;15667;52.376;9.708;2023-02-21T00:10:41;8.80;99.90
28438;DHT22;15667;52.376;9.708;2023-02-21T00:13:26;8.80;99.90
28438;DHT22;15667;52.376;9.708;2023-02-21T00:16:16;8.90;99.90
28438;DHT22;15667;52.376;9.708;2023-02-21T00:19:01;8.90;99.90
28438;DHT22;15667;52.376;9.708;2023-02-21T00:21:45;8.90;99.90
28438;DHT22;15667;52.376;9.708;2023-02-21T00:24:29;8.90;99.90
28438;DHT22;15667;52.376;9.708;2023-02-21T00:27:13;9.00;99.90
28438;DHT22;15667;52.376;9.708;2023-02-21T00:29:57;8.90;99.90
28438;DHT22;15667;52.376;9.708;2023-02-21T00:32:41;8.90;99.90
28438;DHT22;15667;52.376;9.708;2023-02-21T00:35:25;8.90;99.90
28438;DHT22;15667;52.376;9.708;2023-02-21T00:38:10;8.90;99.90
28438;DHT22;15667;52.376;9.708;2023-02-21T00:40:54;8.90;99.90
28438;DHT22;15667;52.376;9.708;2023-02-21T00:43:38;8.90;99.90
28438;DHT22;15667;52.376;9.708;2023-02-21T00:46:23;8.90;99.90
28438;DHT22;15667;52.376;9.708;2023-02-21T00:49:07;8.80;99.90
28438;DHT22;15667;52.376;9.708;2023-02-21T00:51:51;8.80;99.90
28438;DHT22;15667;52.376;9.708;2023-02-21T00:54:36;8.80;99.90
28438;DHT22;15667;52.376;9.708;2023-02-21T00:57:21;8.80;99.90
28438;DHT22;15667;52.376;9.708;2023-02-21T01:00:06;8.80;99.90
28438;DHT22;15667;52.376;9.708;2023-02-21T01:02:51;8.70;99.90
28438;DHT22;15667;52.376;9.708;2023-02-21T01:05:35;8.80;99.90
28438;DHT22;15667;52.376;9.708;2023-02-21T01:08:19;8.90;99.90
28438;DHT22;15667;52.376;9.708;2023-02-21T01:11:04;8.90;99.90
28438;DHT22;15667;52.376;9.708;2023-02-21T01:13:48;9.50;99.90
28438;DHT22;15667;52.376;9.708;2023-02-21T01:16:33;8.90;99.90
28438;DHT22;15667;52.376;9.708;2023-02-21T01:19:17;9.00;99.90
28438;DHT22;15667;52.376;9.708;2023-02-21T01:22:03;9.10;99.90
28438;DHT22;15667;52.376;9.708;2023-02-21T01:24:51;9.00;99.90
28438;DHT22;15667;52.376;9.708;2023-02-21T01:27:35;9.00;99.90
28438;DHT22;15667;52.376;9.708;2023-02-21T01:30:19;8.90;99.90
28438;DHT22;15667;52.376;9.708;2023-02-21T01:33:04;8.90;99.90
28438;DHT22;15667;52.376;9.708;2023-02-21T01:35:48;9.00;99.90
28438;DHT22;15667;52.376;9.708;2023-02-21T01:38:33;9.00;99.90
28438;DHT22;15667;52.376;9.708;2023-02-21T01:41:17;9.00;99.90
28438;DHT22;15667;52.376;9.708;2023-02-21T01:44:04;9.00;99.90
28438;DHT22;15667;52.376;9.708;2023-02-21T01:46:49;9.60;99.90
28438;DHT22;15667;52.376;9.708;2023-02-21T01:49:34;9.40;99.90
28438;DHT22;15667;52.376;9.708;2023-02-21T01:52:19;9.00;99.90
28438;DHT22;15667;52.376;9.708;2023-02-21T01:55:05;9.00;99.90
28438;DHT22;15667;52.376;9.708;2023-02-21T01:57:50;9.10;99.90
28438;DHT22;15667;52.376;9.708;2023-02-21T02:00:36;9.10;99.90
28438;DHT22;15667;52.376;9.708;2023-02-21T02:03:20;9.10;99.90
28438;DHT22;15667;52.376;9.708;2023-02-21T02:06:11;9.10;99.90
28438;DHT22;15667;52.376;9.708;2023-02-21T02:08:56;9.20;99.90
28438;DHT22;15667;52.376;9.708;2023-02-21T02:17:43;9.10;99.90
28438;DHT22;15667;52.376;9.708;2023-02-21T02:23:45;9.10;99.90
28438;DHT22;15667;52.376;9.708;2023-02-21T02:35:19;9.00;99.90
28438;DHT22;15667;52.376;9.708;2023-02-21T02:37:57;9.00;99.90
28438;DHT22;15667;52.376;9.708;2023-02-21T02:40:32;9.00;99.90
28438;DHT22;15667;52.376;9.708;2023-02-21T02:48:21;9.00;99.90
28438;DHT22;15667;52.376;9.708;2023-02-21T02:50:49;8.90;99.90
28438;DHT22;15667;52.376;9.708;2023-02-21T02:53:20;8.90;99.90
28438;DHT22;15667;52.376;9.708;2023-02-21T02:56:04;8.90;99.90
28438;DHT22;15667;52.376;9.708;2023-02-21T02:58:34;8.90;99.90
28438;DHT22;15667;52.376;9.708;2023-02-21T03:06:53;8.90;99.90
28438;DHT22;15667;52.376;9.708;2023-02-21T03:09:25;8.90;99.90
28438;DHT22;15667;52.376;9.708;2023-02-21T03:14:40;8.70;99.90
28438;DHT22;15667;52.376;9.708;2023-02-21T03:17:12;8.70;99.90
28438;DHT22;15667;52.376;9.708;2023-02-21T03:19:44;8.80;99.90
28438;DHT22;15667;52.376;9.708;2023-02-21T03:22:14;8.70;99.90
28438;DHT22;15667;52.376;9.708;2023-02-21T03:24:42;8.70;99.90
28438;DHT22;15667;52.376;9.708;2023-02-21T03:27:09;8.70;99.90
28438;DHT22;15667;52.376;9.708;2023-02-21T03:29:36;8.70;99.90
28438;DHT22;15667;52.376;9.708;2023-02-21T03:32:16;8.70;99.90
28438;DHT22;15667;52.376;9.708;2023-02-21T03:34:43;8.70;99.90
28438;DHT22;15667;52.376;9.708;2023-02-21T03:37:35;8.80;99.90
28438;DHT22;15667;52.376;9.708;2023-02-21T03:40:04;8.70;99.90
28438;DHT22;15667;52.376;9.708;2023-02-21T03:42:30;8.70;99.90
28438;DHT22;15667;52.376;9.708;2023-02-21T03:44:56;8.60;99.90
28438;DHT22;15667;52.376;9.708;2023-02-21T03:47:22;8.70;99.90
28438;DHT22;15667;52.376;9.708;2023-02-21T03:49:47;8.70;99.90
28438;DHT22;15667;52.376;9.708;2023-02-21T03:52:13;8.70;99.90
28438;DHT22;15667;52.376;9.708;2023-02-21T03:54:39;8.40;99.90
28438;DHT22;15667;52.376;9.708;2023-02-21T03:57:06;8.70;99.90
28438;DHT22;15667;52.376;9.708;2023-02-21T03:59:31;8.70;99.90
28438;DHT22;15667;52.376;9.708;2023-02-21T04:01:57;8.70;99.90
28438;DHT22;15667;52.376;9.708;2023-02-21T04:04:23;9.00;99.90
28438;DHT22;15667;52.376;9.708;2023-02-21T04:06:48;8.70;99.90
28438;DHT22;15667;52.376;9.708;2023-02-21T04:09:14;8.60;99.90
28438;DHT22;15667;52.376;9.708;2023-02-21T04:11:43;8.70;99.90
28438;DHT22;15667;52.376;9.708;2023-02-21T04:14:09;8.80;99.90
28438;DHT22;15667;52.376;9.708;2023-02-21T04:16:35;8.60;99.90
28438;DHT22;15667;52.376;9.708;2023-02-21T04:19:01;8.70;99.90
28438;DHT22;15667;52.376;9.708;2023-02-21T04:21:26;8.70;99.90
28438;DHT22;15667;52.376;9.708;2023-02-21T04:23:52;8.70;99.90
28438;DHT22;15667;52.376;9.708;2023-02-21T04:26:18;8.60;99.90
28438;DHT22;15667;52.376;9.708;2023-02-21T04:28:43;9.20;99.90
28438;DHT22;15667;52.376;9.708;2023-02-21T04:31:09;8.70;99.90
28438;DHT22;15667;52.376;9.708;2023-02-21T04:33:35;9.50;99.90
28438;DHT22;15667;52.376;9.708;2023-02-21T04:36:01;8.70;99.90
28438;DHT22;15667;52.376;9.708;2023-02-21T04:38:26;8.70;99.90
28438;DHT22;15667;52.376;9.708;2023-02-21T04:40:52;8.70;99.90
28438;DHT22;15667;52.376;9.708;2023-02-21T04:43:18;8.70;99.90
28438;DHT22;15667;52.376;9.708;2023-02-21T04:45:45;8.80;99.90
28438;DHT22;15667;52.376;9.708;2023-02-21T04:48:11;8.70;99.90
28438;DHT22;15667;52.376;9.708;2023-02-21T04:50:36;8.70;99.90
28438;DHT22;15667;52.376;9.708;2023-02-21T04:53:02;8.90;99.90
28438;DHT22;15667;52.376;9.708;2023-02-21T04:55:28;8.70;99.90
28438;DHT22;15667;52.376;9.708;2023-02-21T04:57:53;8.70;99.90
28438;DHT22;15667;52.376;9.708;2023-02-21T05:00:19;9.20;99.90
28438;DHT22;15667;52.376;9.708;2023-02-21T05:02:45;8.70;99.90
28438;DHT22;15667;52.376;9.708;2023-02-21T05:05:11;8.60;99.90
28438;DHT22;15667;52.376;9.708;2023-02-21T05:07:37;8.70;99.90
28438;DHT22;15667;52.376;9.708;2023-02-21T05:10:03;8.70;99.90
28438;DHT22;15667;52.376;9.708;2023-02-21T05:12:30;8.70;99.90
28438;DHT22;15667;52.376;9.708;2023-02-21T05:14:56;9.10;99.90
28438;DHT22;15667;52.376;9.708;2023-02-21T05:17:22;8.80;99.90
28438;DHT22;15667;52.376;9.708;2023-02-21T05:19:47;8.90;99.90
28438;DHT22;15667;52.376;9.708;2023-02-21T05:22:13;8.90;99.90
28438;DHT22;15667;52.376;9.708;2023-02-21T05:24:42;9.40;99.90
28438;DHT22;15667;52.376;9.708;2023-02-21T05:27:08;8.90;99.90
28438;DHT22;15667;52.376;9.708;2023-02-21T05:29:41;9.20;99.90
28438;DHT22;15667;52.376;9.708;2023-02-21T05:32:06;8.90;99.90
28438;DHT22;15667;52.376;9.708;2023-02-21T05:34:32;8.90;99.90
28438;DHT22;15667;52.376;9.708;2023-02-21T05:36:57;9.00;99.90
28438;DHT22;15667;52.376;9.708;2023-02-21T05:39:23;8.90;99.90
28438;DHT22;15667;52.376;9.708;2023-02-21T05:41:49;8.90;99.90
28438;DHT22;15667;52.376;9.708;2023-02-21T05:44:17;9.00;99.90
28438;DHT22;15667;52.376;9.708;2023-02-21T05:46:43;9.00;99.90
28438;DHT22;15667;52.376;9.708;2023-02-21T05:49:10;9.00;99.90
28438;DHT22;15667;52.376;9.708;2023-02-21T05:51:38;9.00;99.90
28438;DHT22;15667;52.376;9.708;2023-02-21T05:54:05;8.90;99.90
28438;DHT22;15667;52.376;9.708;2023-02-21T05:57:03;9.00;99.90
28438;DHT22;15667;52.376;9.708;2023-02-21T05:59:37;8.90;99.90
28438;DHT22;15667;52.376;9.708;2023-02-21T06:02:04;8.50;99.90
28438;DHT22;15667;52.376;9.708;2023-02-21T06:04:29;9.00;99.90
28438;DHT22;15667;52.376;9.708;2023-02-21T06:06:55;9.10;99.90
28438;DHT22;15667;52.376;9.708;2023-02-21T06:09:21;10.10;99.90
28438;DHT22;15667;52.376;9.708;2023-02-21T06:11:46;9.00;99.90
28438;DHT22;15667;52.376;9.708;2023-02-21T06:14:17;9.00;99.90
28438;DHT22;15667;52.376;9.708;2023-02-21T06:16:44;9.00;99.90
28438;DHT22;15667;52.376;9.708;2023-02-21T06:19:11;8.90;99.90
28438;DHT22;15667;52.376;9.708;2023-02-21T06:21:37;9.20;99.90
28438;DHT22;15667;52.376;9.708;2023-02-21T06:24:04;8.90;99.90
28438;DHT22;15667;52.376;9.708;2023-02-21T06:26:33;8.90;99.90
28438;DHT22;15667;52.376;9.708;2023-02-21T06:28:59;9.00;99.90
28438;DHT22;15667;52.376;9.708;2023-02-21T06:31:25;9.00;99.90
28438;DHT22;15667;52.376;9.708;2023-02-21T06:33:51;9.00;99.90
28438;DHT22;15667;52.376;9.708;2023-02-21T06:36:20;9.00;99.90
28438;DHT22;15667;52.376;9.708;2023-02-21T06:38:48;10.10;99.90
28438;DHT22;15667;52.376;9.708;2023-02-21T06:41:18;9.00;99.90
28438;DHT22;15667;52.376;9.708;2023-02-21T06:46:36;9.00;99.90
28438;DHT22;15667;52.376;9.708;2023-02-21T06:49:04;9.00;99.90
28438;DHT22;15667;52.376;9.708;2023-02-21T06:51:42;9.20;99.90
28438;DHT22;15667;52.376;9.708;2023-02-21T06:54:08;9.00;99.90
28438;DHT22;15667;52.376;9.708;2023-02-21T06:56:59;10.30;99.90
28438;DHT22;15667;52.376;9.708;2023-02-21T06:59:27;9.10;99.90
28438;DHT22;15667;52.376;9.708;2023-02-21T07:01:53;10.00;99.90
28438;DHT22;15667;52.376;9.708;2023-02-21T07:04:19;9.20;99.90
28438;DHT22;15667;52.376;9.708;2023-02-21T07:06:44;9.20;99.90
28438;DHT22;15667;52.376;9.708;2023-02-21T07:09:10;9.20;99.90
28438;DHT22;15667;52.376;9.708;2023-02-21T07:11:36;9.20;99.90
28438;DHT22;15667;52.376;9.708;2023-02-21T07:14:02;9.30;99.90
28438;DHT22;15667;52.376;9.708;2023-02-21T07:16:27;9.30;99.90
28438;DHT22;15667;52.376;9.708;2023-02-21T07:18:53;9.40;99.90
28438;DHT22;15667;52.376;9.708;2023-02-21T07:21:19;9.30;99.90
28438;DHT22;15667;52.376;9.708;2023-02-21T07:23:46;9.30;99.90
28438;DHT22;15667;52.376;9.708;2023-02-21T07:26:13;9.40;99.90
28438;DHT22;15667;52.376;9.708;2023-02-21T07:28:39;9.30;99.90
28438;DHT22;15667;52.376;9.708;2023-02-21T07:31:05;9.30;99.90
28438;DHT22;15667;52.376;9.708;2023-02-21T07:33:30;9.30;99.90
28438;DHT22;15667;52.376;9.708;2023-02-21T07:35:56;9.20;99.90
28438;DHT22;15667;52.376;9.708;2023-02-21T07:38:23;9.20;99.90
28438;DHT22;15667;52.376;9.708;2023-02-21T07:40:50;9.20;99.90
28438;DHT22;15667;52.376;9.708;2023-02-21T07:43:18;9.20;99.90
28438;DHT22;15667;52.376;9.708;2023-02-21T07:45:44;9.20;99.90
28438;DHT22;15667;52.376;9.708;2023-02-21T07:48:09;9.20;99.90
28438;DHT22;15667;52.376;9.708;2023-02-21T07:50:42;9.20;99.90
28438;DHT22;15667;52.376;9.708;2023-02-21T07:53:09;9.20;99.90
28438;DHT22;15667;52.376;9.708;2023-02-21T07:55:35;9.20;99.90
28438;DHT22;15667;52.376;9.708;2023-02-21T07:58:01;8.60;99.90
28438;DHT22;15667;52.376;9.708;2023-02-21T08:00:28;9.20;99.90
28438;DHT22;15667;52.376;9.708;2023-02-21T08:02:54;9.50;99.90
28438;DHT22;15667;52.376;9.708;2023-02-21T08:05:20;9.40;99.90
28438;DHT22;15667;52.376;9.708;2023-02-21T08:07:46;9.40;99.90
28438;DHT22;15667;52.376;9.708;2023-02-21T08:10:18;9.30;99.90
28438;DHT22;15667;52.376;9.708;2023-02-21T08:12:44;9.20;99.90
28438;DHT22;15667;52.376;9.708;2023-02-21T08:15:12;9.30;99.90
28438;DHT22;15667;52.376;9.708;2023-02-21T08:17:38;9.30;99.90
28438;DHT22;15667;52.376;9.708;2023-02-21T08:20:04;9.30;99.90
28438;DHT22;15667;52.376;9.708;2023-02-21T08:22:32;9.40;99.90
28438;DHT22;15667;52.376;9.708;2023-02-21T08:24:58;9.40;99.90
28438;DHT22;15667;52.376;9.708;2023-02-21T08:27:24;9.40;99.90
28438;DHT22;15667;52.376;9.708;2023-02-21T08:29:50;9.40;99.90
28438;DHT22;15667;52.376;9.708;2023-02-21T08:32:17;9.40;99.90
28438;DHT22;15667;52.376;9.708;2023-02-21T08:34:47;9.40;99.90
28438;DHT22;15667;52.376;9.708;2023-02-21T08:37:13;9.40;99.90
28438;DHT22;15667;52.376;9.708;2023-02-21T08:40:00;9.30;99.90
28438;DHT22;15667;52.376;9.708;2023-02-21T08:42:25;9.60;99.90
28438;DHT22;15667;52.376;9.708;2023-02-21T08:44:51;9.40;99.90
28438;DHT22;15667;52.376;9.708;2023-02-21T08:47:17;9.40;99.90
28438;DHT22;15667;52.376;9.708;2023-02-21T08:49:47;9.40;99.90
28438;DHT22;15667;52.376;9.708;2023-02-21T08:52:17;9.50;99.90
28438;DHT22;15667;52.376;9.708;2023-02-21T08:54:43;9.50;99.90
28438;DHT22;15667;52.376;9.708;2023-02-21T08:57:10;9.50;99.90
28438;DHT22;15667;52.376;9.708;2023-02-21T08:59:39;9.80;99.90
28438;DHT22;15667;52.376;9.708;2023-02-21T09:02:16;9.50;99.90
28438;DHT22;15667;52.376;9.708;2023-02-21T09:04:43;9.50;99.90
28438;DHT22;15667;52.376;9.708;2023-02-21T09:07:17;9.50;99.90
28438;DHT22;15667;52.376;9.708;2023-02-21T09:09:43;9.60;99.90
28438;DHT22;15667;52.376;9.708;2023-02-21T09:12:10;9.60;99.90
28438;DHT22;15667;52.376;9.708;2023-02-21T09:14:37;9.60;99.90
28438;DHT22;15667;52.376;9.708;2023-02-21T09:17:05;9.60;99.90
28438;DHT22;15667;52.376;9.708;2023-02-21T09:19:31;9.60;99.90
28438;DHT22;15667;52.376;9.708;2023-02-21T09:21:57;9.70;99.90
28438;DHT22;15667;52.376;9.708;2023-02-21T09:24:26;9.60;99.90
28438;DHT22;15667;52.376;9.708;2023-02-21T09:26:54;9.80;99.90
28438;DHT22;15667;52.376;9.708;2023-02-21T09:29:24;9.70;99.90
28438;DHT22;15667;52.376;9.708;2023-02-21T09:31:50;9.70;99.90
28438;DHT22;15667;52.376;9.708;2023-02-21T09:34:15;9.90;99.90
28438;DHT22;15667;52.376;9.708;2023-02-21T09:36:41;9.90;99.90
28438;DHT22;15667;52.376;9.708;2023-02-21T09:39:07;10.00;99.90
28438;DHT22;15667;52.376;9.708;2023-02-21T09:41:35;9.90;99.90
28438;DHT22;15667;52.376;9.708;2023-02-21T09:44:02;10.40;99.90
28438;DHT22;15667;52.376;9.708;2023-02-21T09:46:40;10.00;99.90
28438;DHT22;15667;52.376;9.708;2023-02-21T09:49:14;10.00;99.90
28438;DHT22;15667;52.376;9.708;2023-02-21T09:51:43;9.90;99.90
28438;DHT22;15667;52.376;9.708;2023-02-21T09:54:31;10.10;99.90
28438;DHT22;15667;52.376;9.708;2023-02-21T09:57:00;10.10;99.90
28438;DHT22;15667;52.376;9.708;2023-02-21T09:59:26;10.20;99.90
28438;DHT22;15667;52.376;9.708;2023-02-21T10:02:42;10.30;99.90
28438;DHT22;15667;52.376;9.708;2023-02-21T10:05:20;10.40;99.90
28438;DHT22;15667;52.376;9.708;2023-02-21T10:13:52;10.40;99.90
28438;DHT22;15667;52.376;9.708;2023-02-21T10:16:41;10.30;99.90
28438;DHT22;15667;52.376;9.708;2023-02-21T10:21:33;10.10;99.90
28438;DHT22;15667;52.376;9.708;2023-02-21T10:24:02;10.10;99.90
28438;DHT22;15667;52.376;9.708;2023-02-21T10:26:34;10.10;99.90
28438;DHT22;15667;52.376;9.708;2023-02-21T10:29:06;10.10;99.90
28438;DHT22;15667;52.376;9.708;2023-02-21T10:31:42;10.20;99.90
28438;DHT22;15667;52.376;9.708;2023-02-21T10:34:23;10.20;99.90
28438;DHT22;15667;52.376;9.708;2023-02-21T10:36:51;10.20;99.90
28438;DHT22;15667;52.376;9.708;2023-02-21T10:42:27;10.20;99.90
28438;DHT22;15667;52.376;9.708;2023-02-21T10:44:53;10.20;99.90
28438;DHT22;15667;52.376;9.708;2023-02-21T10:47:26;10.20;99.90
28438;DHT22;15667;52.376;9.708;2023-02-21T10:50:00;10.30;99.90
28438;DHT22;15667;52.376;9.708;2023-02-21T10:52:26;10.50;99.90
28438;DHT22;15667;52.376;9.708;2023-02-21T10:55:00;10.40;99.90
28438;DHT22;15667;52.376;9.708;2023-02-21T10:57:30;10.50;99.90
28438;DHT22;15667;52.376;9.708;2023-02-21T10:59:56;10.30;99.90
28438;DHT22;15667;52.376;9.708;2023-02-21T11:02:33;10.40;99.90
28438;DHT22;15667;52.376;9.708;2023-02-21T11:05:16;10.30;99.90
28438;DHT22;15667;52.376;9.708;2023-02-21T11:08:02;10.50;99.90
28438;DHT22;15667;52.376;9.708;2023-02-21T11:15:31;10.40;99.90
28438;DHT22;15667;52.376;9.708;2023-02-21T11:18:10;10.30;99.90
28438;DHT22;15667;52.376;9.708;2023-02-21T11:20:36;10.30;99.90
28438;DHT22;15667;52.376;9.708;2023-02-21T11:23:02;10.30;99.90
28438;DHT22;15667;52.376;9.708;2023-02-21T11:25:36;10.20;99.90
28438;DHT22;15667;52.376;9.708;2023-02-21T11:33:24;10.30;99.90
28438;DHT22;15667;52.376;9.708;2023-02-21T11:35:52;10.30;99.90
28438;DHT22;15667;52.376;9.708;2023-02-21T11:38:35;10.60;99.90
28438;DHT22;15667;52.376;9.708;2023-02-21T11:41:13;10.30;99.90
28438;DHT22;15667;52.376;9.708;2023-02-21T11:43:54;10.40;99.90
28438;DHT22;15667;52.376;9.708;2023-02-21T11:52:30;10.80;99.90
28438;DHT22;15667;52.376;9.708;2023-02-21T11:54:57;10.80;99.90
28438;DHT22;15667;52.376;9.708;2023-02-21T11:57:57;10.80;99.90
28438;DHT22;15667;52.376;9.708;2023-02-21T12:00:48;10.70;99.90
28438;DHT22;15667;52.376;9.708;2023-02-21T12:09:14;11.20;99.90
28438;DHT22;15667;52.376;9.708;2023-02-21T12:11:54;10.90;99.90
28438;DHT22;15667;52.376;9.708;2023-02-21T12:17:13;11.10;99.90
28438;DHT22;15667;52.376;9.708;2023-02-21T12:20:04;11.20;99.90
28438;DHT22;15667;52.376;9.708;2023-02-21T12:42:08;11.40;99.90
28438;DHT22;15667;52.376;9.708;2023-02-21T12:47:45;12.10;99.90
28438;DHT22;15667;52.376;9.708;2023-02-21T12:50:19;12.10;99.90
28438;DHT22;15667;52.376;9.708;2023-02-21T13:09:44;12.10;99.90
28438;DHT22;15667;52.376;9.708;2023-02-21T13:12:48;12.60;99.90
28438;DHT22;15667;52.376;9.708;2023-02-21T13:15:30;10.70;99.90
28438;DHT22;15667;52.376;9.708;2023-02-21T13:20:33;12.10;99.90
28438;DHT22;15667;52.376;9.708;2023-02-21T13:23:42;12.00;99.90
28438;DHT22;15667;52.376;9.708;2023-02-21T13:29:20;12.00;99.90
28438;DHT22;15667;52.376;9.708;2023-02-21T13:31:48;11.60;99.90
28438;DHT22;15667;52.376;9.708;2023-02-21T13:34:20;11.30;99.90
28438;DHT22;15667;52.376;9.708;2023-02-21T13:36:48;11.30;99.90
28438;DHT22;15667;52.376;9.708;2023-02-21T13:39:29;10.80;99.90
28438;DHT22;15667;52.376;9.708;2023-02-21T13:42:14;11.40;99.90
28438;DHT22;15667;52.376;9.708;2023-02-21T13:44:43;11.30;99.90
28438;DHT22;15667;52.376;9.708;2023-02-21T13:49:47;11.30;99.90
28438;DHT22;15667;52.376;9.708;2023-02-21T14:03:03;11.40;99.90
28438;DHT22;15667;52.376;9.708;2023-02-21T14:08:55;11.30;99.90
28438;DHT22;15667;52.376;9.708;2023-02-21T14:11:28;11.50;99.90
28438;DHT22;15667;52.376;9.708;2023-02-21T14:14:01;11.40;99.90
28438;DHT22;15667;52.376;9.708;2023-02-21T14:22:35;11.30;99.90
28438;DHT22;15667;52.376;9.708;2023-02-21T14:25:23;11.20;99.90
28438;DHT22;15667;52.376;9.708;2023-02-21T14:27:53;11.10;99.90
28438;DHT22;15667;52.376;9.708;2023-02-21T15:03:31;10.50;99.90
28438;DHT22;15667;52.376;9.708;2023-02-21T15:06:09;10.60;99.90
28438;DHT22;15667;52.376;9.708;2023-02-21T15:08:43;10.50;99.90
28438;DHT22;15667;52.376;9.708;2023-02-21T15:11:38;10.50;99.90
28438;DHT22;15667;52.376;9.708;2023-02-21T15:14:16;10.50;99.90
28438;DHT22;15667;52.376;9.708;2023-02-21T15:17:19;10.40;99.90
28438;DHT22;15667;52.376;9.708;2023-02-21T15:19:45;10.80;99.90
28438;DHT22;15667;52.376;9.708;2023-02-21T15:24:37;10.30;99.90
28438;DHT22;15667;52.376;9.708;2023-02-21T15:27:14;10.40;99.90
28438;DHT22;15667;52.376;9.708;2023-02-21T15:29:40;10.30;99.90
28438;DHT22;15667;52.376;9.708;2023-02-21T15:32:10;10.30;99.90
28438;DHT22;15667;52.376;9.708;2023-02-21T15:34:41;10.20;99.90
28438;DHT22;15667;52.376;9.708;2023-02-21T15:37:23;10.20;99.90
28438;DHT22;15667;52.376;9.708;2023-02-21T15:39:54;10.40;99.90
28438;DHT22;15667;52.376;9.708;2023-02-21T15:42:21;10.40;99.90
28438;DHT22;15667;52.376;9.708;2023-02-21T15:47:19;10.20;99.90
28438;DHT22;15667;52.376;9.708;2023-02-21T15:49:59;10.20;99.90
28438;DHT22;15667;52.376;9.708;2023-02-21T15:55:13;10.00;99.90
28438;DHT22;15667;52.376;9.708;2023-02-21T15:57:40;10.20;99.90
28438;DHT22;15667;52.376;9.708;2023-02-21T16:02:52;10.20;99.90
28438;DHT22;15667;52.376;9.708;2023-02-21T16:05:37;10.10;99.90
28438;DHT22;15667;52.376;9.708;2023-02-21T16:08:03;10.10;99.90
28438;DHT22;15667;52.376;9.708;2023-02-21T16:10:30;10.10;99.90
28438;DHT22;15667;52.376;9.708;2023-02-21T16:12:58;10.20;99.90
28438;DHT22;15667;52.376;9.708;2023-02-21T16:15:30;10.10;99.90
28438;DHT22;15667;52.376;9.708;2023-02-21T16:17:59;10.10;99.90
28438;DHT22;15667;52.376;9.708;2023-02-21T16:20:30;10.10;99.90
28438;DHT22;15667;52.376;9.708;2023-02-21T16:23:23;10.40;99.90
28438;DHT22;15667;52.376;9.708;2023-02-21T16:26:18;10.00;99.90
28438;DHT22;15667;52.376;9.708;2023-02-21T16:28:45;10.20;99.90
28438;DHT22;15667;52.376;9.708;2023-02-21T16:31:31;10.50;99.90
28438;DHT22;15667;52.376;9.708;2023-02-21T16:33:57;10.00;99.90
28438;DHT22;15667;52.376;9.708;2023-02-21T16:36:26;10.00;99.90
28438;DHT22;15667;52.376;9.708;2023-02-21T16:38:53;10.00;99.90
28438;DHT22;15667;52.376;9.708;2023-02-21T16:41:19;10.00;99.90
28438;DHT22;15667;52.376;9.708;2023-02-21T16:43:45;9.90;99.90
28438;DHT22;15667;52.376;9.708;2023-02-21T16:46:11;9.90;99.90
28438;DHT22;15667;52.376;9.708;2023-02-21T16:48:38;9.90;99.90
28438;DHT22;15667;52.376;9.708;2023-02-21T16:51:08;10.40;99.90
28438;DHT22;15667;52.376;9.708;2023-02-21T16:53:34;9.80;99.90
28438;DHT22;15667;52.376;9.708;2023-02-21T16:56:00;9.90;99.90
28438;DHT22;15667;52.376;9.708;2023-02-21T16:58:27;9.80;99.90
28438;DHT22;15667;52.376;9.708;2023-02-21T17:01:00;10.50;99.90
28438;DHT22;15667;52.376;9.708;2023-02-21T17:03:26;10.20;99.90
28438;DHT22;15667;52.376;9.708;2023-02-21T17:05:56;9.90;99.90
28438;DHT22;15667;52.376;9.708;2023-02-21T17:08:22;9.90;99.90
28438;DHT22;15667;52.376;9.708;2023-02-21T17:10:50;10.00;99.90
28438;DHT22;15667;52.376;9.708;2023-02-21T17:13:15;9.70;99.90
28438;DHT22;15667;52.376;9.708;2023-02-21T17:15:41;9.70;99.90
28438;DHT22;15667;52.376;9.708;2023-02-21T17:21:35;9.90;99.90
28438;DHT22;15667;52.376;9.708;2023-02-21T17:27:10;11.30;99.90
28438;DHT22;15667;52.376;9.708;2023-02-21T17:29:35;10.40;99.90
28438;DHT22;15667;52.376;9.708;2023-02-21T17:32:02;10.40;99.90
28438;DHT22;15667;52.376;9.708;2023-02-21T17:34:41;9.70;99.90
28438;DHT22;15667;52.376;9.708;2023-02-21T17:37:07;9.70;99.90
28438;DHT22;15667;52.376;9.708;2023-02-21T17:39:34;9.70;99.90
28438;DHT22;15667;52.376;9.708;2023-02-21T17:49:05;9.70;99.90
28438;DHT22;15667;52.376;9.708;2023-02-21T18:20:51;9.70;99.90
28438;DHT22;15667;52.376;9.708;2023-02-21T18:26:52;11.10;99.90
28438;DHT22;15667;52.376;9.708;2023-02-21T18:29:46;9.60;99.90
28438;DHT22;15667;52.376;9.708;2023-02-21T18:32:50;9.60;99.90
28438;DHT22;15667;52.376;9.708;2023-02-21T18:35:16;9.80;99.90
28438;DHT22;15667;52.376;9.708;2023-02-21T18:37:43;9.60;99.90
28438;DHT22;15667;52.376;9.708;2023-02-21T18:40:12;9.60;99.90
28438;DHT22;15667;52.376;9.708;2023-02-21T18:42:40;9.60;99.90
28438;DHT22;15667;52.376;9.708;2023-02-21T18:45:06;9.60;99.90
28438;DHT22;15667;52.376;9.708;2023-02-21T18:47:32;9.60;99.90
28438;DHT22;15667;52.376;9.708;2023-02-21T18:49:59;9.60;99.90
28438;DHT22;15667;52.376;9.708;2023-02-21T18:52:25;9.60;99.90
28438;DHT22;15667;52.376;9.708;2023-02-21T18:54:50;9.60;99.90
28438;DHT22;15667;52.376;9.708;2023-02-21T18:57:18;9.60;99.90
28438;DHT22;15667;52.376;9.708;2023-02-21T18:59:44;9.50;99.90
28438;DHT22;15667;52.376;9.708;2023-02-21T19:02:15;9.40;99.90
28438;DHT22;15667;52.376;9.708;2023-02-21T19:04:42;9.60;99.90
28438;DHT22;15667;52.376;9.708;2023-02-21T19:07:09;9.40;99.90
28438;DHT22;15667;52.376;9.708;2023-02-21T19:09:35;9.10;99.90
28438;DHT22;15667;52.376;9.708;2023-02-21T19:12:02;9.40;99.90
28438;DHT22;15667;52.376;9.708;2023-02-21T19:14:32;9.40;99.90
28438;DHT22;15667;52.376;9.708;2023-02-21T19:20:16;9.50;99.90
28438;DHT22;15667;52.376;9.708;2023-02-21T19:22:44;9.40;99.90
28438;DHT22;15667;52.376;9.708;2023-02-21T19:25:11;9.40;99.90
28438;DHT22;15667;52.376;9.708;2023-02-21T19:27:37;9.40;99.90
28438;DHT22;15667;52.376;9.708;2023-02-21T19:30:03;9.40;99.90
28438;DHT22;15667;52.376;9.708;2023-02-21T19:32:30;9.40;99.90
28438;DHT22;15667;52.376;9.708;2023-02-21T19:34:56;9.50;99.90
28438;DHT22;15667;52.376;9.708;2023-02-21T19:37:21;10.60;99.90
28438;DHT22;15667;52.376;9.708;2023-02-21T19:39:48;10.50;99.90
28438;DHT22;15667;52.376;9.708;2023-02-21T19:42:14;8.90;99.90
28438;DHT22;15667;52.376;9.708;2023-02-21T19:44:40;9.50;99.90
28438;DHT22;15667;52.376;9.708;2023-02-21T19:47:06;9.50;99.90
28438;DHT22;15667;52.376;9.708;2023-02-21T19:49:31;10.10;99.90
28438;DHT22;15667;52.376;9.708;2023-02-21T19:51:59;9.50;99.90
28438;DHT22;15667;52.376;9.708;2023-02-21T19:54:25;10.80;99.90
28438;DHT22;15667;52.376;9.708;2023-02-21T19:56:56;10.70;99.90
28438;DHT22;15667;52.376;9.708;2023-02-21T19:59:22;9.60;99.90
28438;DHT22;15667;52.376;9.708;2023-02-21T20:01:50;9.80;99.90
28438;DHT22;15667;52.376;9.708;2023-02-21T20:04:16;10.60;99.90